createdAt,value
2019-03-23T00:02:06.388Z,40.73
2019-03-23T00:04:37.421Z,31.47
2019-03-23T00:07:08.232Z,31.27
2019-03-23T00:09:38.856Z,25.50
2019-03-23T00:12:09.668Z,43.60
2019-03-23T00:14:40.236Z,98.63
2019-03-23T00:17:10.859Z,119.23
2019-03-23T00:19:41.432Z,91.97
2019-03-23T00:22:12.127Z,59.13
2019-03-23T00:24:42.748Z,62.80
2019-03-23T00:27:13.325Z,106.27
2019-03-23T00:29:44.161Z,51.77
2019-03-23T00:32:16.728Z,79.93
2019-03-23T00:34:47.581Z,51.27
2019-03-23T00:37:18.440Z,41.73
2019-03-23T00:39:49.243Z,96.57
2019-03-23T00:42:19.863Z,50.83
2019-03-23T00:44:50.432Z,48.30
2019-03-23T00:47:21.558Z,250.80
2019-03-23T00:49:52.396Z,139.57
2019-03-23T00:52:24.112Z,42.43
2019-03-23T00:54:54.929Z,31.13
2019-03-23T00:57:25.965Z,43.20
2019-03-23T00:59:56.780Z,33.87
2019-03-23T01:02:27.623Z,27.80
2019-03-23T01:04:58.655Z,116.20
2019-03-23T01:07:29.280Z,49.40
2019-03-23T01:09:59.861Z,104.70
2019-03-23T01:12:30.556Z,47.00
2019-03-23T01:15:01.369Z,39.77
2019-03-23T01:17:32.248Z,33.73
2019-03-23T01:20:02.820Z,105.93
2019-03-23T01:22:33.754Z,51.03
2019-03-23T01:25:05.208Z,89.63
2019-03-23T01:27:36.504Z,228.13
2019-03-23T01:30:09.107Z,200.00
2019-03-23T01:32:39.872Z,182.43
2019-03-23T01:35:10.713Z,234.63
2019-03-23T01:37:41.365Z,90.80
2019-03-23T01:40:12.118Z,368.83
2019-03-23T01:42:42.971Z,300.33
2019-03-23T01:45:16.008Z,148.03
2019-03-23T01:47:46.640Z,97.20
2019-03-23T01:50:17.452Z,199.10
2019-03-23T01:52:48.474Z,141.77
2019-03-23T01:55:19.131Z,98.93
2019-03-23T01:57:49.977Z,243.60
2019-03-23T02:00:20.805Z,277.30
2019-03-23T02:02:51.446Z,170.83
2019-03-23T02:05:22.308Z,46.20
2019-03-23T02:07:52.926Z,105.67
2019-03-23T02:10:23.795Z,202.53
2019-03-23T02:12:54.381Z,203.20
2019-03-23T02:15:25.592Z,116.87
2019-03-23T02:17:56.308Z,66.00
2019-03-23T02:20:26.882Z,116.70
2019-03-23T02:22:57.526Z,121.77
2019-03-23T02:25:28.345Z,202.30
2019-03-23T02:27:58.973Z,316.60
2019-03-23T02:30:29.598Z,263.93
2019-03-23T02:33:00.692Z,260.10
2019-03-23T02:35:31.305Z,194.23
2019-03-23T02:38:01.881Z,211.80
2019-03-23T02:40:32.741Z,204.23
2019-03-23T02:43:03.609Z,99.87
2019-03-23T02:45:34.248Z,141.43
2019-03-23T02:48:05.157Z,95.27
2019-03-23T02:50:35.990Z,122.80
2019-03-23T02:53:06.681Z,75.33
2019-03-23T02:55:38.280Z,173.17
2019-03-23T02:58:09.219Z,114.93
2019-03-23T03:00:40.310Z,128.77
2019-03-23T03:03:11.359Z,128.93
2019-03-23T03:05:42.485Z,122.17
2019-03-23T03:08:13.749Z,148.10
2019-03-23T03:10:45.113Z,100.60
2019-03-23T03:13:15.677Z,108.07
2019-03-23T03:15:46.255Z,111.40
2019-03-23T03:18:16.905Z,108.20
2019-03-23T03:20:47.786Z,57.97
2019-03-23T03:23:19.595Z,56.50
2019-03-23T03:25:50.206Z,79.63
2019-03-23T03:28:20.772Z,67.07
2019-03-23T03:30:51.637Z,54.67
2019-03-23T03:33:22.521Z,66.17
2019-03-23T03:35:53.466Z,81.77
2019-03-23T03:38:24.485Z,55.50
2019-03-23T03:40:55.280Z,47.70
2019-03-23T03:43:26.445Z,60.70
2019-03-23T03:45:57.300Z,100.67
2019-03-23T03:48:28.168Z,83.40
2019-03-23T03:50:58.977Z,51.70
2019-03-23T03:53:29.769Z,75.30
2019-03-23T03:56:00.338Z,65.50
2019-03-23T03:58:31.205Z,98.13
2019-03-23T04:01:01.939Z,76.17
2019-03-23T04:03:32.552Z,78.33
2019-03-23T04:06:03.139Z,76.40
2019-03-23T04:08:33.752Z,69.90
2019-03-23T04:11:04.440Z,78.60
2019-03-23T04:13:35.108Z,98.10
2019-03-23T04:16:05.694Z,69.80
2019-03-23T04:18:36.336Z,105.20
2019-03-23T04:21:07.380Z,77.63
2019-03-23T04:23:38.012Z,75.60
2019-03-23T04:26:08.890Z,84.90
2019-03-23T04:28:39.701Z,59.27
2019-03-23T04:31:10.553Z,67.57
2019-03-23T04:33:41.689Z,76.10
2019-03-23T04:36:12.325Z,82.30
2019-03-23T04:38:42.885Z,59.17
2019-03-23T04:41:13.751Z,53.77
2019-03-23T04:43:44.548Z,71.20
2019-03-23T04:46:15.192Z,49.67
2019-03-23T04:48:45.820Z,63.07
2019-03-23T04:51:16.628Z,56.07
2019-03-23T04:53:47.443Z,74.80
2019-03-23T04:56:18.063Z,64.83
2019-03-23T04:58:48.623Z,49.13
2019-03-23T05:01:19.488Z,81.70
2019-03-23T05:03:50.104Z,58.87
2019-03-23T05:06:20.685Z,48.47
2019-03-23T05:08:51.280Z,91.13
2019-03-23T05:11:22.195Z,69.07
2019-03-23T05:13:53.011Z,82.37
2019-03-23T05:16:23.584Z,52.30
2019-03-23T05:18:54.256Z,57.30
2019-03-23T05:21:24.825Z,82.90
2019-03-23T05:23:56.230Z,80.77
2019-03-23T05:26:27.092Z,91.87
2019-03-23T05:28:57.716Z,61.90
2019-03-23T05:31:28.545Z,75.80
2019-03-23T05:33:59.197Z,98.20
2019-03-23T05:36:29.765Z,51.47
2019-03-23T05:39:00.393Z,56.93
2019-03-23T05:41:31.488Z,59.73
2019-03-23T05:44:02.108Z,44.40
2019-03-23T05:46:32.683Z,141.70
2019-03-23T05:49:03.523Z,83.60
2019-03-23T05:51:34.333Z,72.90
2019-03-23T05:54:05.321Z,53.53
2019-03-23T05:56:35.953Z,71.13
2019-03-23T05:59:06.511Z,66.13
2019-03-23T06:01:37.096Z,58.47
2019-03-23T06:04:08.454Z,85.80
2019-03-23T06:06:39.274Z,65.53
2019-03-23T06:09:10.686Z,46.77
2019-03-23T06:11:42.694Z,38.60
2019-03-23T06:14:13.474Z,37.20
2019-03-23T06:16:45.202Z,32.17
2019-03-23T06:19:15.885Z,36.83
2019-03-23T06:21:46.824Z,37.10
2019-03-23T06:24:17.972Z,39.90
2019-03-23T06:26:48.631Z,36.43
2019-03-23T06:29:19.737Z,39.20
2019-03-23T06:31:50.404Z,40.33
2019-03-23T06:34:21.865Z,42.17
2019-03-23T06:36:52.721Z,34.73
2019-03-23T06:39:24.153Z,37.83
2019-03-23T06:41:55.511Z,37.20
2019-03-23T06:44:26.167Z,36.80
2019-03-23T06:46:56.731Z,48.97
2019-03-23T06:49:27.441Z,46.33
2019-03-23T06:51:58.059Z,37.03
2019-03-23T06:54:28.892Z,40.70
2019-03-23T06:56:59.963Z,38.00
2019-03-23T06:59:30.631Z,41.73
2019-03-23T07:02:01.210Z,40.37
2019-03-23T07:04:31.820Z,45.90
2019-03-23T07:07:02.642Z,43.87
2019-03-23T07:09:33.475Z,42.60
2019-03-23T07:12:04.255Z,42.93
2019-03-23T07:14:35.078Z,43.43
2019-03-23T07:17:06.228Z,48.87
2019-03-23T07:19:36.796Z,40.70
2019-03-23T07:22:07.428Z,47.67
2019-03-23T07:24:38.251Z,43.23
2019-03-23T07:27:09.320Z,43.33
2019-03-23T07:29:39.956Z,40.90
2019-03-23T07:32:10.751Z,44.87
2019-03-23T07:34:41.428Z,42.90
2019-03-23T07:37:13.212Z,41.77
2019-03-23T07:39:43.889Z,41.00
2019-03-23T07:42:14.832Z,46.20
2019-03-23T07:44:45.656Z,41.67
2019-03-23T07:47:16.324Z,38.33
2019-03-23T07:49:47.189Z,39.67
2019-03-23T07:52:17.780Z,38.70
2019-03-23T07:54:48.640Z,35.20
2019-03-23T07:57:19.449Z,45.00
2019-03-23T07:59:50.101Z,39.40
2019-03-23T08:02:20.688Z,42.93
2019-03-23T08:04:51.964Z,31.60
2019-03-23T08:07:22.528Z,40.03
2019-03-23T08:09:53.112Z,40.77
2019-03-23T08:12:23.963Z,38.93
2019-03-23T08:14:55.063Z,34.70
2019-03-23T08:17:26.019Z,38.77
2019-03-23T08:19:57.013Z,32.50
2019-03-23T08:22:27.831Z,29.80
2019-03-23T08:24:58.432Z,32.47
2019-03-23T08:27:29.280Z,31.83
2019-03-23T08:30:00.304Z,37.37
2019-03-23T08:32:31.409Z,36.20
2019-03-23T08:35:02.725Z,35.00
2019-03-23T08:37:34.280Z,36.60
2019-03-23T08:40:05.923Z,35.13
2019-03-23T08:42:36.853Z,39.10
2019-03-23T08:45:07.828Z,35.03
2019-03-23T08:47:38.700Z,41.37
2019-03-23T08:50:09.692Z,36.10
2019-03-23T08:52:40.490Z,38.90
2019-03-23T08:55:11.492Z,37.87
2019-03-23T08:57:42.586Z,38.00
2019-03-23T09:00:13.525Z,31.00
2019-03-23T09:02:44.229Z,40.27
2019-03-23T09:05:14.798Z,36.67
2019-03-23T09:07:45.814Z,38.80
2019-03-23T09:10:16.524Z,36.60
2019-03-23T09:12:47.408Z,45.90
2019-03-23T09:15:18.475Z,41.80
2019-03-23T09:17:49.113Z,45.10
2019-03-23T09:20:19.954Z,39.10
2019-03-23T09:22:50.980Z,37.33
2019-03-23T09:25:21.869Z,38.83
2019-03-23T09:27:52.965Z,39.30
2019-03-23T09:30:23.584Z,38.93
2019-03-23T09:32:56.914Z,36.90
2019-03-23T09:35:27.419Z,32.93
2019-03-23T09:37:58.087Z,38.03
2019-03-23T09:40:28.644Z,37.73
2019-03-23T09:42:59.819Z,35.70
2019-03-23T09:45:30.833Z,36.47
2019-03-23T09:48:01.541Z,40.30
2019-03-23T09:50:32.949Z,36.47
2019-03-23T09:53:04.076Z,38.47
2019-03-23T09:55:36.804Z,41.20
2019-03-23T09:58:07.608Z,35.60
2019-03-23T10:00:39.235Z,35.13
2019-03-23T10:03:10.420Z,32.90
2019-03-23T10:05:41.042Z,32.17
2019-03-23T10:08:13.063Z,35.70
2019-03-23T10:10:44.150Z,33.80
2019-03-23T10:13:14.771Z,35.43
2019-03-23T10:15:45.380Z,32.40
2019-03-23T10:18:15.960Z,35.57
2019-03-23T10:20:49.487Z,32.37
2019-03-23T10:23:20.537Z,33.73
2019-03-23T10:25:51.236Z,34.30
2019-03-23T10:28:22.044Z,37.67
2019-03-23T10:30:52.878Z,31.67
2019-03-23T10:33:24.101Z,33.93
2019-03-23T10:35:54.793Z,32.77
2019-03-23T10:38:25.761Z,29.17
2019-03-23T10:40:56.864Z,29.80
2019-03-23T10:43:27.537Z,29.53
2019-03-23T10:45:58.559Z,38.23
2019-03-23T10:48:29.612Z,29.63
2019-03-23T10:51:00.249Z,33.93
2019-03-23T10:53:31.082Z,32.00
2019-03-23T10:56:02.250Z,37.13
2019-03-23T10:58:33.791Z,31.70
2019-03-23T11:01:04.472Z,34.00
2019-03-23T11:03:35.137Z,35.23
2019-03-23T11:06:05.991Z,29.70
2019-03-23T11:08:36.787Z,30.47
2019-03-23T11:11:07.496Z,32.87
2019-03-23T11:13:38.321Z,37.77
2019-03-23T11:16:09.413Z,33.00
2019-03-23T11:18:39.991Z,31.53
2019-03-23T11:21:10.869Z,41.37
2019-03-23T11:23:41.452Z,37.17
2019-03-23T11:26:12.299Z,35.70
2019-03-23T11:28:43.364Z,34.33
2019-03-23T11:31:14.086Z,38.33
2019-03-23T11:33:44.758Z,42.20
2019-03-23T11:36:15.785Z,40.40
2019-03-23T11:38:46.893Z,36.20
2019-03-23T11:41:17.481Z,40.23
2019-03-23T11:43:48.357Z,40.37
2019-03-23T11:46:19.254Z,41.93
2019-03-23T11:48:49.864Z,41.53
2019-03-23T11:51:20.802Z,37.67
2019-03-23T11:53:51.493Z,42.47
2019-03-23T11:56:22.364Z,36.80
2019-03-23T11:58:54.018Z,40.60
2019-03-23T12:01:24.759Z,35.13
2019-03-23T12:03:55.356Z,39.97
2019-03-23T12:06:26.264Z,36.73
2019-03-23T12:08:57.105Z,42.80
2019-03-23T12:11:27.690Z,42.40
2019-03-23T12:13:58.316Z,37.50
2019-03-23T12:16:28.901Z,47.53
2019-03-23T12:18:59.527Z,38.53
2019-03-23T12:21:30.169Z,38.30
2019-03-23T12:24:00.992Z,41.67
2019-03-23T12:26:31.651Z,44.50
2019-03-23T12:29:02.515Z,35.57
2019-03-23T12:31:33.119Z,42.40
2019-03-23T12:34:04.486Z,36.53
2019-03-23T12:36:35.353Z,40.03
2019-03-23T12:39:06.961Z,41.67
2019-03-23T12:41:37.811Z,42.53
2019-03-23T12:44:08.400Z,41.83
2019-03-23T12:46:47.847Z,38.63
2019-03-23T12:49:11.984Z,44.83
2019-03-23T12:51:42.620Z,42.70
2019-03-23T12:54:13.201Z,40.07
2019-03-23T12:56:43.895Z,43.10
2019-03-23T12:59:14.968Z,47.63
2019-03-23T13:01:45.819Z,45.17
2019-03-23T13:04:16.399Z,45.87
2019-03-23T13:06:48.001Z,43.93
2019-03-23T13:09:18.800Z,48.17
2019-03-23T13:11:49.823Z,48.57
2019-03-23T13:14:20.724Z,60.47
2019-03-23T13:16:51.617Z,47.67
2019-03-23T13:19:22.229Z,48.60
2019-03-23T13:21:52.835Z,50.07
2019-03-23T13:24:23.464Z,53.60
2019-03-23T13:26:54.040Z,48.13
2019-03-23T13:29:24.950Z,46.10
2019-03-23T13:31:55.524Z,48.60
2019-03-23T13:34:26.156Z,46.83
2019-03-23T13:36:56.739Z,49.73
2019-03-23T13:39:27.393Z,50.67
2019-03-23T13:41:57.969Z,48.40
2019-03-23T13:44:28.862Z,49.77
2019-03-23T13:46:59.446Z,44.20
2019-03-23T13:49:30.635Z,46.87
2019-03-23T13:52:01.942Z,50.60
2019-03-23T13:54:32.963Z,49.93
2019-03-23T13:57:03.543Z,50.27
2019-03-23T13:59:34.192Z,50.73
2019-03-23T14:02:04.848Z,57.87
2019-03-23T14:04:36.608Z,52.90
2019-03-23T14:07:07.508Z,49.77
2019-03-23T14:09:38.378Z,49.37
2019-03-23T14:12:09.180Z,53.23
2019-03-23T14:14:40.064Z,53.23
2019-03-23T14:17:10.757Z,44.37
2019-03-23T14:19:41.656Z,52.53
2019-03-23T14:22:12.484Z,48.30
2019-03-23T14:24:43.245Z,51.10
2019-03-23T14:27:14.308Z,46.77
2019-03-23T14:29:45.540Z,49.10
2019-03-23T14:32:16.673Z,55.40
2019-03-23T14:34:48.262Z,51.93
2019-03-23T14:37:18.840Z,49.57
2019-03-23T14:39:49.688Z,59.20
2019-03-23T14:42:20.259Z,50.47
2019-03-23T14:44:50.890Z,49.23
2019-03-23T14:47:21.955Z,47.00
2019-03-23T14:49:52.836Z,50.43
2019-03-23T14:52:23.692Z,51.93
2019-03-23T14:54:54.275Z,48.30
2019-03-23T14:57:25.181Z,49.40
2019-03-23T14:59:55.900Z,49.93
2019-03-23T15:02:26.720Z,45.47
2019-03-23T15:04:58.327Z,54.70
2019-03-23T15:07:29.012Z,50.37
2019-03-23T15:09:59.891Z,52.97
2019-03-23T15:12:30.716Z,54.57
2019-03-23T15:15:02.105Z,50.40
2019-03-23T15:17:33.659Z,48.10
2019-03-23T15:20:04.954Z,47.67
2019-03-23T15:22:35.530Z,45.23
2019-03-23T15:25:08.596Z,40.80
2019-03-23T15:27:39.213Z,45.23
2019-03-23T15:30:09.869Z,45.80
2019-03-23T15:32:40.749Z,39.67
2019-03-23T15:35:12.145Z,44.43
2019-03-23T15:37:43.002Z,43.13
2019-03-23T15:40:13.667Z,49.37
2019-03-23T15:42:44.736Z,47.33
2019-03-23T15:45:15.905Z,46.60
2019-03-23T15:47:46.959Z,42.27
2019-03-23T15:50:18.227Z,39.50
2019-03-23T15:52:49.356Z,38.87
2019-03-23T15:55:19.984Z,43.10
2019-03-23T15:57:50.814Z,39.13
2019-03-23T16:00:21.500Z,39.60
2019-03-23T16:02:53.116Z,42.27
2019-03-23T16:05:23.813Z,45.60
2019-03-23T16:07:54.624Z,37.87
2019-03-23T16:10:25.376Z,42.20
2019-03-23T16:12:56.194Z,37.40
2019-03-23T16:15:27.089Z,41.00
2019-03-23T16:17:57.660Z,38.60
2019-03-23T16:20:28.780Z,38.27
2019-03-23T16:23:00.076Z,38.37
2019-03-23T16:25:30.943Z,44.03
2019-03-23T16:28:01.766Z,35.87
2019-03-23T16:30:33.748Z,44.03
2019-03-23T16:33:04.398Z,39.70
2019-03-23T16:35:35.296Z,37.00
2019-03-23T16:38:06.201Z,37.73
2019-03-23T16:40:37.112Z,43.30
2019-03-23T16:43:07.725Z,45.03
2019-03-23T16:45:38.623Z,42.83
2019-03-23T16:48:09.212Z,42.50
2019-03-23T16:50:41.059Z,40.13
2019-03-23T16:53:11.877Z,42.10
2019-03-23T16:55:42.509Z,42.47
2019-03-23T16:58:16.431Z,48.43
2019-03-23T17:00:45.721Z,41.90
2019-03-23T17:03:16.296Z,38.03
2019-03-23T17:05:47.420Z,48.47
2019-03-23T17:08:18.802Z,45.37
2019-03-23T17:10:49.606Z,40.17
2019-03-23T17:13:20.648Z,39.30
2019-03-23T17:15:51.496Z,45.00
2019-03-23T17:18:22.819Z,37.07
2019-03-23T17:20:53.751Z,38.90
2019-03-23T17:23:24.639Z,41.70
2019-03-23T17:25:59.573Z,41.10
2019-03-23T17:28:30.523Z,41.73
2019-03-23T17:31:01.206Z,31.83
2019-03-23T17:33:32.536Z,39.07
2019-03-23T17:36:03.181Z,38.60
2019-03-23T17:38:35.025Z,29.47
2019-03-23T17:41:06.312Z,22.03
2019-03-23T17:43:37.120Z,18.77
2019-03-23T17:46:07.732Z,14.33
2019-03-23T17:48:40.205Z,10.40
2019-03-23T17:51:11.255Z,10.97
2019-03-23T17:53:42.240Z,8.90
2019-03-23T17:56:12.825Z,9.00
2019-03-23T17:58:43.924Z,11.00
2019-03-23T18:01:19.632Z,9.63
2019-03-23T18:03:49.812Z,8.57
2019-03-23T18:06:20.625Z,8.00
2019-03-23T18:08:51.488Z,7.10
2019-03-23T18:11:22.542Z,7.37
2019-03-23T18:13:53.436Z,4.87
2019-03-23T18:16:24.052Z,5.53
2019-03-23T18:18:54.633Z,6.00
2019-03-23T18:21:25.192Z,6.17
2019-03-23T18:23:55.884Z,9.17
2019-03-23T18:26:26.701Z,8.37
2019-03-23T18:28:58.724Z,9.80
2019-03-23T18:31:29.531Z,8.50
2019-03-23T18:34:01.011Z,12.03
2019-03-23T18:36:31.960Z,15.27
2019-03-23T18:39:03.188Z,8.83
2019-03-23T18:41:34.595Z,11.03
2019-03-23T18:44:15.572Z,13.93
2019-03-23T18:46:38.944Z,16.33
2019-03-23T18:49:09.886Z,13.20
2019-03-23T18:51:40.943Z,12.87
2019-03-23T18:54:13.232Z,13.27
2019-03-23T18:56:44.165Z,13.27
2019-03-23T18:59:14.760Z,12.20
2019-03-23T19:01:46.053Z,10.03
2019-03-23T19:04:17.212Z,12.60
2019-03-23T19:06:48.223Z,11.53
2019-03-23T19:09:19.047Z,11.47
2019-03-23T19:11:49.736Z,10.47
2019-03-23T19:14:20.356Z,12.70
2019-03-23T19:16:51.234Z,13.10
2019-03-23T19:19:22.152Z,9.07
2019-03-23T19:21:53.141Z,10.40
2019-03-23T19:24:23.704Z,8.80
2019-03-23T19:26:54.548Z,9.47
2019-03-23T19:29:27.597Z,11.80
2019-03-23T19:31:57.690Z,8.00
2019-03-23T19:34:28.593Z,12.07
2019-03-23T19:36:59.683Z,8.70
2019-03-23T19:39:30.652Z,8.17
2019-03-23T19:42:01.439Z,12.50
2019-03-23T19:44:32.391Z,10.67
2019-03-23T19:47:03.318Z,11.23
2019-03-23T19:49:34.164Z,13.17
2019-03-23T19:52:05.224Z,13.63
2019-03-23T19:54:36.047Z,13.07
2019-03-23T19:57:06.872Z,14.33
2019-03-23T19:59:39.249Z,14.83
2019-03-23T20:02:09.848Z,16.90
2019-03-23T20:04:40.897Z,15.30
2019-03-23T20:07:11.523Z,13.17
2019-03-23T20:09:42.216Z,14.40
2019-03-23T20:12:15.835Z,16.90
2019-03-23T20:14:46.692Z,15.40
2019-03-23T20:17:17.567Z,16.97
2019-03-23T20:19:48.418Z,18.17
2019-03-23T20:22:19.095Z,22.23
2019-03-23T20:24:49.972Z,18.10
2019-03-23T20:27:21.064Z,15.43
2019-03-23T20:29:51.942Z,17.20
2019-03-23T20:32:23.093Z,22.07
2019-03-23T20:34:53.921Z,23.13
2019-03-23T20:37:24.987Z,18.57
2019-03-23T20:39:55.689Z,17.87
2019-03-23T20:42:26.801Z,18.30
2019-03-23T20:44:57.643Z,22.73
2019-03-23T20:47:28.752Z,24.33
2019-03-23T20:49:59.652Z,21.77
2019-03-23T20:52:30.285Z,25.37
2019-03-23T20:55:01.266Z,16.70
2019-03-23T20:57:37.355Z,20.70
2019-03-23T21:00:05.484Z,18.40
2019-03-23T21:02:36.527Z,25.43
2019-03-23T21:05:07.548Z,18.57
2019-03-23T21:07:38.451Z,21.68
2019-03-23T21:10:10.440Z,22.07
2019-03-23T21:12:41.424Z,26.43
2019-03-23T21:15:12.196Z,18.97
2019-03-23T21:17:51.150Z,18.23
2019-03-23T21:20:15.843Z,19.10
2019-03-23T21:22:46.708Z,22.13
2019-03-23T21:25:17.612Z,20.70
2019-03-23T21:27:49.057Z,16.43
2019-03-23T21:30:20.053Z,19.23
2019-03-23T21:32:51.015Z,19.43
2019-03-23T21:35:21.891Z,19.77
2019-03-23T21:37:52.455Z,19.53
2019-03-23T21:40:23.380Z,22.63
2019-03-23T21:42:54.167Z,23.60
2019-03-23T21:45:25.036Z,19.40
2019-03-23T21:47:55.896Z,19.93
2019-03-23T21:50:26.709Z,24.27
2019-03-23T21:52:57.398Z,23.33
2019-03-23T21:55:28.056Z,23.40
2019-03-23T21:57:59.129Z,18.80
2019-03-23T22:00:34.065Z,22.60
2019-03-23T22:03:05.255Z,23.53
2019-03-23T22:05:36.568Z,23.57
2019-03-23T22:08:08.260Z,21.83
2019-03-23T22:10:39.539Z,22.00
2019-03-23T22:13:10.156Z,23.33
2019-03-23T22:15:41.011Z,25.30
2019-03-23T22:18:11.827Z,18.33
2019-03-23T22:20:42.912Z,20.63
2019-03-23T22:23:14.081Z,22.37
2019-03-23T22:25:44.867Z,16.63
2019-03-23T22:28:16.120Z,18.40
2019-03-23T22:30:47.012Z,21.20
2019-03-23T22:33:18.080Z,21.07
2019-03-23T22:35:49.194Z,21.13
2019-03-23T22:38:21.220Z,15.23
2019-03-23T22:40:52.498Z,22.17
2019-03-23T22:43:23.366Z,13.30
2019-03-23T22:45:54.161Z,23.77
2019-03-23T22:48:24.829Z,25.53
2019-03-23T22:50:55.743Z,26.57
2019-03-23T22:53:26.544Z,25.47
2019-03-23T22:55:57.424Z,21.30
2019-03-23T22:58:28.208Z,22.93
2019-03-23T23:00:58.984Z,23.50
2019-03-23T23:03:29.826Z,21.73
2019-03-23T23:06:01.168Z,21.60
2019-03-23T23:08:31.967Z,20.93
2019-03-23T23:11:03.529Z,21.57
2019-03-23T23:13:34.568Z,22.93
2019-03-23T23:16:05.320Z,16.97
2019-03-23T23:18:36.134Z,21.60
2019-03-23T23:21:07.059Z,21.97
2019-03-23T23:23:37.763Z,21.77
2019-03-23T23:26:08.340Z,23.03
2019-03-23T23:28:39.208Z,20.43
2019-03-23T23:31:10.052Z,21.60
2019-03-23T23:33:42.632Z,20.17
2019-03-23T23:36:13.696Z,19.50
2019-03-23T23:38:44.292Z,18.53
2019-03-23T23:41:15.158Z,24.07
2019-03-23T23:43:46.173Z,18.23
2019-03-23T23:46:17.012Z,27.00
2019-03-23T23:48:51.537Z,19.60
2019-03-23T23:51:20.639Z,24.80
2019-03-23T23:53:51.629Z,20.87
2019-03-23T23:56:22.445Z,20.67
2019-03-23T23:58:53.080Z,20.70
